Time;durP1;ratioP1;P1;durP2;ratioP2;P2;SDS_P1;SDS_P2;PMS_P1;PMS_P2;Temp;Humidity;BMP_temperature;BMP_pressure;BME280_temperature;BME280_humidity;BME280_pressure;Samples;Min_cycle;Max_cycle;Signal;HPM_P1;HPM_P2
2022/02/15 00:01:04;;;;;;;16.15;11.82;;;7.70;99.90;;;;;;5051891;28;20081;-48
2022/02/15 00:03:30;;;;;;;19.58;12.43;;;7.80;99.90;;;;;;5051441;28;20028;-48
2022/02/15 00:05:56;;;;;;;14.57;11.20;;;7.80;99.90;;;;;;5051649;28;20029;-45
2022/02/15 00:08:22;;;;;;;15.27;11.02;;;7.70;99.90;;;;;;5051959;28;20512;-48
2022/02/15 00:10:48;;;;;;;15.93;11.27;;;7.70;99.90;;;;;;5051887;28;20025;-50
2022/02/15 00:13:14;;;;;;;16.52;10.70;;;7.70;99.90;;;;;;5051566;28;20029;-51
2022/02/15 00:15:40;;;;;;;18.08;12.35;;;7.60;99.90;;;;;;5051150;28;20032;-51
2022/02/15 00:18:06;;;;;;;13.57;10.85;;;7.60;99.90;;;;;;5051025;28;20017;-49
2022/02/15 00:20:31;;;;;;;16.50;12.02;;;7.50;99.90;;;;;;5051541;28;20389;-48
2022/02/15 00:22:57;;;;;;;19.23;12.10;;;7.50;99.90;;;;;;5051278;28;20102;-48
2022/02/15 00:25:22;;;;;;;18.58;12.50;;;7.50;99.90;;;;;;5051509;28;20036;-50
2022/02/15 00:27:48;;;;;;;15.65;11.98;;;7.50;99.90;;;;;;5051634;28;20029;-49
2022/02/15 00:30:14;;;;;;;17.10;11.77;;;7.50;99.90;;;;;;5051412;28;20025;-48
2022/02/15 00:32:41;;;;;;;17.08;12.45;;;7.40;99.90;;;;;;5051553;28;20025;-51
2022/02/15 00:35:07;;;;;;;14.20;11.93;;;7.40;99.90;;;;;;5051713;28;20028;-50
2022/02/15 00:37:32;;;;;;;16.75;12.80;;;7.40;99.90;;;;;;5050309;28;20025;-52
2022/02/15 00:39:58;;;;;;;21.50;12.30;;;7.30;99.90;;;;;;5051729;28;20075;-47
2022/02/15 00:42:23;;;;;;;18.77;12.75;;;7.40;99.90;;;;;;5051149;28;20377;-47
2022/02/15 00:44:49;;;;;;;18.65;14.30;;;7.30;99.90;;;;;;5051145;28;20104;-47
2022/02/15 00:47:16;;;;;;;22.80;16.08;;;7.30;99.90;;;;;;5050400;28;20028;-51
2022/02/15 00:49:42;;;;;;;19.45;14.73;;;7.30;99.90;;;;;;5051144;28;20397;-46
2022/02/15 00:52:07;;;;;;;21.73;14.70;;;7.20;99.90;;;;;;5051375;28;20480;-49
2022/02/15 00:54:33;;;;;;;18.33;13.95;;;7.20;99.90;;;;;;5050978;28;20040;-51
2022/02/15 00:56:59;;;;;;;18.92;14.32;;;7.20;99.90;;;;;;5051425;28;20381;-49
2022/02/15 00:59:24;;;;;;;22.25;14.98;;;7.20;99.90;;;;;;5049889;28;20536;-48
2022/02/15 01:01:50;;;;;;;19.58;13.93;;;7.10;99.90;;;;;;5051238;28;20021;-49
2022/02/15 01:04:16;;;;;;;21.65;15.20;;;7.10;99.90;;;;;;5050982;28;20104;-50
2022/02/15 01:06:41;;;;;;;19.88;14.40;;;7.10;99.90;;;;;;5055114;28;20087;-50
2022/02/15 01:09:07;;;;;;;24.10;15.65;;;7.10;99.90;;;;;;5055235;28;20052;-52
2022/02/15 01:11:32;;;;;;;20.77;16.65;;;7.00;99.90;;;;;;5055266;28;20485;-54
2022/02/15 01:13:58;;;;;;;21.60;15.98;;;7.00;99.90;;;;;;5054864;28;20399;-52
2022/02/15 01:16:23;;;;;;;23.92;15.82;;;6.90;99.90;;;;;;5055117;28;20086;-50
2022/02/15 01:18:49;;;;;;;22.33;16.00;;;6.90;99.90;;;;;;5054974;28;20032;-51
2022/02/15 01:21:14;;;;;;;23.63;16.52;;;6.90;99.90;;;;;;5054857;28;20032;-54
2022/02/15 01:23:40;;;;;;;19.48;16.55;;;6.90;99.90;;;;;;5054764;28;20108;-50
2022/02/15 01:26:06;;;;;;;21.60;16.35;;;6.90;99.90;;;;;;5055085;28;20488;-49
2022/02/15 01:28:34;;;;;;;22.25;17.15;;;6.90;99.90;;;;;;5054875;28;20441;-49
2022/02/15 01:31:01;;;;;;;23.85;16.80;;;6.90;99.90;;;;;;5054701;28;20463;-50
2022/02/15 01:33:26;;;;;;;24.38;17.27;;;6.90;99.90;;;;;;5054641;28;20021;-51
2022/02/15 01:35:52;;;;;;;27.45;18.83;;;6.80;99.90;;;;;;5054772;28;20025;-50
2022/02/15 01:38:17;;;;;;;25.13;18.90;;;6.80;99.90;;;;;;5054374;28;20031;-50
2022/02/15 01:40:43;;;;;;;27.25;19.83;;;6.70;99.90;;;;;;5054730;28;20028;-49
2022/02/15 01:43:08;;;;;;;26.20;18.23;;;6.70;99.90;;;;;;5054451;28;20021;-52
2022/02/15 01:45:34;;;;;;;23.08;18.10;;;6.70;99.90;;;;;;5054696;28;20228;-50
2022/02/15 01:48:00;;;;;;;27.40;18.17;;;6.60;99.90;;;;;;5054483;28;20463;-53
2022/02/15 01:50:25;;;;;;;23.48;18.75;;;6.60;99.90;;;;;;5054567;28;20029;-49
2022/02/15 01:52:51;;;;;;;27.50;18.00;;;6.60;99.90;;;;;;5054219;28;20029;-50
2022/02/15 01:55:17;;;;;;;23.95;17.23;;;6.50;99.90;;;;;;5054556;28;20017;-52
2022/02/15 01:57:43;;;;;;;25.10;17.38;;;6.50;99.90;;;;;;5054586;28;20426;-52
2022/02/15 02:00:13;;;;;;;24.45;18.08;;;6.50;99.90;;;;;;5054375;28;20021;-51
2022/02/15 02:02:40;;;;;;;27.10;17.85;;;6.40;99.90;;;;;;5054359;28;20123;-49
2022/02/15 02:07:50;;;;;;;22.88;16.40;;;6.40;99.90;;;;;;5054022;28;20123;-49
2022/02/15 02:10:16;;;;;;;23.85;15.57;;;6.50;99.90;;;;;;5054270;28;20044;-48
2022/02/15 02:12:41;;;;;;;22.00;15.05;;;6.50;99.90;;;;;;5054112;28;20056;-49
2022/02/15 02:15:09;;;;;;;21.52;15.73;;;6.50;99.90;;;;;;5052356;28;20515;-49
2022/02/15 02:17:36;;;;;;;20.92;14.00;;;6.60;99.90;;;;;;5054304;28;20029;-48
2022/02/15 02:20:02;;;;;;;19.50;14.65;;;6.60;99.90;;;;;;5067133;22;20055;-49
2022/02/15 02:22:29;;;;;;;19.10;12.63;;;6.60;99.90;;;;;;5053947;28;20384;-45
2022/02/15 02:24:57;;;;;;;16.92;13.13;;;6.60;99.90;;;;;;5052002;28;20036;-42
2022/02/15 02:27:25;;;;;;;18.30;13.55;;;6.60;99.90;;;;;;5053489;28;20029;-43
2022/02/15 02:29:51;;;;;;;17.33;12.77;;;6.70;99.90;;;;;;5053880;28;20083;-45
2022/02/15 02:32:18;;;;;;;19.45;13.60;;;6.60;99.90;;;;;;5053860;28;20039;-43
2022/02/15 02:34:44;;;;;;;18.75;14.88;;;6.70;99.90;;;;;;5053470;28;20523;-48
2022/02/15 02:37:13;;;;;;;14.93;11.93;;;6.70;99.90;;;;;;5053753;28;20024;-40
2022/02/15 02:39:49;;;;;;;15.68;12.27;;;6.70;99.90;;;;;;5053602;28;20129;-47
2022/02/15 02:42:20;;;;;;;17.35;11.73;;;6.70;99.90;;;;;;5053429;28;20055;-45
2022/02/15 02:44:46;;;;;;;16.48;10.85;;;6.70;99.90;;;;;;5053654;28;20025;-46
2022/02/15 02:47:12;;;;;;;15.00;10.45;;;6.70;99.90;;;;;;5053161;28;20040;-47
2022/02/15 02:49:38;;;;;;;19.88;10.73;;;6.70;99.90;;;;;;5053377;28;20033;-40
2022/02/15 02:52:04;;;;;;;17.30;9.73;;;6.70;99.90;;;;;;5053355;28;20484;-46
2022/02/15 02:54:30;;;;;;;15.57;9.95;;;6.60;99.90;;;;;;5053009;28;20044;-41
2022/02/15 02:56:56;;;;;;;15.32;10.07;;;6.70;99.90;;;;;;5053450;28;20104;-45
2022/02/15 02:59:22;;;;;;;16.70;11.32;;;6.70;99.90;;;;;;5053671;28;20017;-44
2022/02/15 03:01:48;;;;;;;11.00;8.63;;;6.80;99.90;;;;;;5054399;28;20047;-45
2022/02/15 03:04:14;;;;;;;11.40;9.07;;;6.80;99.90;;;;;;5054013;28;20033;-48
2022/02/15 03:06:40;;;;;;;11.88;9.43;;;6.80;99.90;;;;;;5053686;28;20017;-47
2022/02/15 03:09:05;;;;;;;15.15;9.90;;;6.70;99.90;;;;;;5053208;28;20390;-43
2022/02/15 03:11:32;;;;;;;16.00;10.60;;;6.70;99.90;;;;;;5051782;28;20040;-49
2022/02/15 03:13:58;;;;;;;17.58;11.45;;;6.80;99.90;;;;;;5052682;28;20075;-44
2022/02/15 03:16:24;;;;;;;13.05;10.43;;;6.80;99.90;;;;;;5053084;28;20017;-43
2022/02/15 03:18:50;;;;;;;15.25;10.90;;;6.70;99.90;;;;;;5051077;28;20075;-46
2022/02/15 03:21:16;;;;;;;17.02;11.80;;;6.70;99.90;;;;;;5053020;28;20028;-44
2022/02/15 03:23:42;;;;;;;17.13;11.65;;;6.70;99.90;;;;;;5051383;28;20017;-45
2022/02/15 03:26:08;;;;;;;18.63;11.90;;;6.70;99.90;;;;;;5052180;28;20130;-44
2022/02/15 03:28:34;;;;;;;17.10;12.40;;;6.70;99.90;;;;;;5051921;28;20060;-44
2022/02/15 03:31:00;;;;;;;19.67;14.20;;;6.70;99.90;;;;;;5052674;28;20048;-45
2022/02/15 03:33:25;;;;;;;19.45;14.68;;;6.70;99.90;;;;;;5052321;28;20562;-46
2022/02/15 03:35:51;;;;;;;19.38;14.52;;;6.80;99.90;;;;;;5052497;28;20029;-44
2022/02/15 03:38:17;;;;;;;19.88;14.55;;;6.80;99.90;;;;;;5052584;28;20028;-44
2022/02/15 03:43:28;;;;;;;19.85;14.57;;;6.70;99.90;;;;;;5040671;28;20033;-44
2022/02/15 03:45:54;;;;;;;22.17;15.05;;;6.70;99.90;;;;;;5052425;28;20039;-48
2022/02/15 03:48:19;;;;;;;21.55;15.43;;;6.70;99.90;;;;;;5052299;28;20044;-43
2022/02/15 03:50:45;;;;;;;23.40;16.60;;;6.80;99.90;;;;;;5052238;28;20029;-41
2022/02/15 03:53:10;;;;;;;22.73;15.43;;;6.80;99.90;;;;;;5051900;28;20060;-45
2022/02/15 03:55:36;;;;;;;21.80;16.52;;;6.80;99.90;;;;;;5052177;28;20242;-48
2022/02/15 03:58:03;;;;;;;22.70;15.25;;;6.80;99.90;;;;;;5052206;28;20021;-40
2022/02/15 04:00:28;;;;;;;20.60;15.43;;;6.80;99.90;;;;;;5051967;28;20116;-43
2022/02/15 04:02:55;;;;;;;21.90;16.85;;;6.80;99.90;;;;;;5052000;28;20031;-45
2022/02/15 04:05:22;;;;;;;21.42;15.65;;;6.80;99.90;;;;;;5052193;28;20021;-44
2022/02/15 04:07:48;;;;;;;23.48;16.52;;;6.80;99.90;;;;;;5051984;28;20029;-44
2022/02/15 04:10:14;;;;;;;24.05;15.32;;;6.80;99.90;;;;;;5051959;28;20021;-41
2022/02/15 04:12:40;;;;;;;22.13;14.80;;;6.80;99.90;;;;;;5051812;28;20029;-41
2022/02/15 04:15:06;;;;;;;24.42;16.23;;;6.90;99.90;;;;;;5052080;28;20120;-44
2022/02/15 04:17:31;;;;;;;24.80;14.80;;;6.90;99.90;;;;;;5052399;28;20074;-46
2022/02/15 04:19:57;;;;;;;26.45;15.63;;;6.90;99.90;;;;;;5052205;28;20151;-44
2022/02/15 04:22:22;;;;;;;22.48;15.43;;;6.90;99.90;;;;;;5051727;28;20020;-41
2022/02/15 04:24:48;;;;;;;24.63;15.63;;;6.90;99.90;;;;;;5051886;28;20040;-44
2022/02/15 04:27:13;;;;;;;19.20;14.27;;;6.90;99.90;;;;;;5052457;28;20388;-44
2022/02/15 04:29:39;;;;;;;20.13;14.68;;;6.90;99.90;;;;;;5052449;28;20028;-44
2022/02/15 04:32:04;;;;;;;20.52;15.10;;;6.80;99.90;;;;;;5052391;28;20029;-44
2022/02/15 04:34:30;;;;;;;21.88;14.35;;;6.80;99.90;;;;;;5052040;28;20035;-40
2022/02/15 04:36:55;;;;;;;20.45;14.75;;;6.80;99.90;;;;;;5051637;28;20104;-48
2022/02/15 04:39:21;;;;;;;18.10;13.75;;;6.70;99.90;;;;;;5051364;28;20060;-44
2022/02/15 04:41:47;;;;;;;20.00;14.75;;;6.90;99.90;;;;;;5051394;28;20391;-49
2022/02/15 04:44:12;;;;;;;18.98;14.65;;;6.90;99.90;;;;;;5051339;28;20485;-50
2022/02/15 04:46:38;;;;;;;21.35;14.43;;;6.90;99.90;;;;;;5051631;28;20059;-48
2022/02/15 04:49:04;;;;;;;20.95;15.00;;;6.90;99.90;;;;;;5051263;28;20108;-46
2022/02/15 04:51:29;;;;;;;20.38;14.93;;;6.90;99.90;;;;;;5051560;28;20025;-43
2022/02/15 04:53:55;;;;;;;22.95;15.00;;;6.90;99.90;;;;;;5051212;28;20531;-44
2022/02/15 04:56:20;;;;;;;20.67;15.65;;;6.90;99.90;;;;;;5051780;28;20078;-45
2022/02/15 04:58:46;;;;;;;20.50;14.55;;;6.90;99.90;;;;;;5050404;28;20108;-44
2022/02/15 05:01:14;;;;;;;21.50;15.98;;;6.80;99.90;;;;;;5050266;28;20029;-42
2022/02/15 05:03:40;;;;;;;22.73;15.07;;;6.80;99.90;;;;;;5051570;28;20024;-47
2022/02/15 05:06:05;;;;;;;22.55;14.98;;;6.80;99.90;;;;;;5051892;28;20488;-48
2022/02/15 05:08:31;;;;;;;19.65;14.43;;;6.90;99.90;;;;;;5051534;28;20174;-44
2022/02/15 05:10:57;;;;;;;23.58;15.60;;;6.80;99.90;;;;;;5051559;28;20219;-43
2022/02/15 05:13:22;;;;;;;18.70;13.30;;;6.90;99.90;;;;;;5051181;28;20029;-45
2022/02/15 05:15:48;;;;;;;20.95;14.75;;;6.90;99.90;;;;;;5051260;28;20036;-45
2022/02/15 05:18:13;;;;;;;18.92;14.20;;;7.00;99.90;;;;;;5051287;28;20031;-45
2022/02/15 05:20:39;;;;;;;25.38;13.93;;;6.90;99.90;;;;;;5051097;28;20118;-44
2022/02/15 05:23:05;;;;;;;17.90;12.45;;;6.90;99.90;;;;;;5050502;28;20493;-43
2022/02/15 05:25:30;;;;;;;16.70;12.50;;;6.90;99.90;;;;;;5051119;28;20029;-44
2022/02/15 05:27:58;;;;;;;18.67;12.95;;;6.80;99.90;;;;;;5051014;28;20036;-43
2022/02/15 05:30:24;;;;;;;14.77;11.98;;;6.80;99.90;;;;;;5051178;28;20083;-42
2022/02/15 05:32:50;;;;;;;16.10;11.75;;;6.80;99.90;;;;;;5050764;28;20071;-44
2022/02/15 05:35:16;;;;;;;14.85;11.23;;;6.80;99.90;;;;;;5051362;28;20376;-43
2022/02/15 05:37:41;;;;;;;16.63;11.52;;;6.90;99.90;;;;;;5050490;28;20386;-48
2022/02/15 05:40:08;;;;;;;19.38;11.73;;;6.90;99.90;;;;;;5051012;28;20025;-46
2022/02/15 05:42:34;;;;;;;15.02;10.13;;;6.90;99.90;;;;;;5050914;28;20071;-44
2022/02/15 05:45:00;;;;;;;13.98;10.52;;;6.90;99.90;;;;;;5050759;28;20429;-41
2022/02/15 05:47:25;;;;;;;13.80;11.02;;;7.00;99.90;;;;;;5050962;28;20536;-44
2022/02/15 05:52:35;;;;;;;18.45;11.48;;;7.00;99.90;;;;;;5055641;28;20120;-44
2022/02/15 05:55:01;;;;;;;14.27;10.48;;;6.90;99.90;;;;;;5055828;28;20056;-45
2022/02/15 05:57:28;;;;;;;17.52;11.43;;;6.90;99.90;;;;;;5055660;28;20393;-42
2022/02/15 05:59:54;;;;;;;15.60;10.45;;;6.90;99.90;;;;;;5054526;28;20308;-46
2022/02/15 06:02:20;;;;;;;17.90;10.70;;;6.90;99.90;;;;;;5056036;28;20051;-48
2022/02/15 06:04:46;;;;;;;15.05;10.30;;;7.00;99.90;;;;;;5054193;28;20523;-41
2022/02/15 06:07:12;;;;;;;13.35;9.80;;;7.00;99.90;;;;;;5055183;28;20447;-45
2022/02/15 06:09:37;;;;;;;17.05;10.77;;;7.10;99.90;;;;;;5054647;28;20025;-44
2022/02/15 06:12:03;;;;;;;15.40;11.15;;;7.00;99.90;;;;;;5054486;28;20028;-48
2022/02/15 06:14:29;;;;;;;17.67;10.57;;;7.00;99.90;;;;;;5054815;28;20039;-47
2022/02/15 06:16:54;;;;;;;15.43;10.43;;;7.00;99.90;;;;;;5055842;28;20644;-41
2022/02/15 06:19:20;;;;;;;13.68;10.40;;;6.90;99.90;;;;;;5054444;28;20083;-45
2022/02/15 06:21:47;;;;;;;15.73;10.95;;;7.00;99.90;;;;;;5055842;28;20051;-47
2022/02/15 06:24:13;;;;;;;12.95;10.02;;;7.00;99.90;;;;;;5055160;28;20020;-43
2022/02/15 06:26:38;;;;;;;13.43;9.88;;;7.00;99.90;;;;;;5055388;28;20488;-45
2022/02/15 06:29:04;;;;;;;15.93;10.77;;;7.00;99.90;;;;;;5054922;28;20033;-47
2022/02/15 06:31:29;;;;;;;15.73;10.10;;;7.10;99.90;;;;;;5055351;28;20032;-45
2022/02/15 06:33:55;;;;;;;12.50;9.15;;;7.00;99.90;;;;;;5054418;28;20021;-49
2022/02/15 06:36:20;;;;;;;15.40;9.00;;;7.00;99.90;;;;;;5054189;28;20048;-45
2022/02/15 06:38:46;;;;;;;15.63;10.77;;;7.00;99.90;;;;;;5054287;28;20079;-43
2022/02/15 06:41:11;;;;;;;13.88;9.38;;;6.90;99.90;;;;;;5053688;28;20040;-46
2022/02/15 06:43:37;;;;;;;10.98;9.73;;;6.90;99.90;;;;;;5054210;28;20400;-45
2022/02/15 06:46:03;;;;;;;11.75;9.98;;;6.90;99.90;;;;;;5053935;28;20025;-44
2022/02/15 06:48:28;;;;;;;15.98;9.32;;;6.90;99.90;;;;;;5053636;28;20033;-48
2022/02/15 06:50:54;;;;;;;15.00;9.60;;;6.90;99.90;;;;;;5053770;28;20036;-45
2022/02/15 06:53:19;;;;;;;15.73;9.45;;;6.90;99.90;;;;;;5053301;28;20025;-44
2022/02/15 06:55:45;;;;;;;14.30;9.82;;;7.00;99.90;;;;;;5053022;28;20044;-44
2022/02/15 06:58:11;;;;;;;15.70;10.27;;;7.00;99.90;;;;;;5053575;28;20035;-45
2022/02/15 07:00:38;;;;;;;14.38;9.10;;;6.90;99.90;;;;;;5053619;28;20029;-45
2022/02/15 07:03:04;;;;;;;17.17;10.25;;;6.90;99.90;;;;;;5051656;28;20442;-50
2022/02/15 07:05:30;;;;;;;10.18;8.50;;;6.90;99.90;;;;;;5049889;28;20135;-42
2022/02/15 07:07:55;;;;;;;13.05;9.50;;;6.80;99.90;;;;;;5053137;28;20104;-43
2022/02/15 07:10:21;;;;;;;14.80;9.00;;;6.80;99.90;;;;;;5053423;28;20040;-45
2022/02/15 07:12:47;;;;;;;11.15;8.68;;;6.80;99.90;;;;;;5037456;28;20437;-47
2022/02/15 07:15:13;;;;;;;13.65;9.25;;;6.80;99.90;;;;;;5033170;28;20090;-45
2022/02/15 07:17:40;;;;;;;14.77;10.10;;;6.80;99.90;;;;;;5033152;28;20104;-40
2022/02/15 07:20:06;;;;;;;13.02;8.80;;;6.90;99.90;;;;;;5033154;28;20124;-43
2022/02/15 07:22:32;;;;;;;10.82;8.65;;;6.90;99.90;;;;;;5033361;28;20029;-46
2022/02/15 07:24:58;;;;;;;15.98;9.23;;;6.90;99.90;;;;;;5033059;28;20025;-44
2022/02/15 07:27:26;;;;;;;12.70;9.20;;;6.90;99.90;;;;;;5032918;28;20481;-48
2022/02/15 07:29:52;;;;;;;11.00;8.40;;;6.80;99.90;;;;;;5046692;28;20031;-42
2022/02/15 07:32:19;;;;;;;11.52;7.90;;;6.90;99.90;;;;;;5052698;28;20400;-43
2022/02/15 07:34:45;;;;;;;12.88;8.48;;;6.90;99.90;;;;;;5051617;28;20449;-43
2022/02/15 07:37:10;;;;;;;12.93;9.57;;;6.90;99.90;;;;;;5046944;28;20092;-42
2022/02/15 07:39:36;;;;;;;11.07;8.82;;;6.90;99.90;;;;;;5035221;28;20447;-44
2022/02/15 07:42:01;;;;;;;13.30;9.35;;;7.00;99.90;;;;;;5052364;28;20017;-47
2022/02/15 07:44:27;;;;;;;13.23;9.18;;;7.00;99.90;;;;;;5052195;28;20395;-44
2022/02/15 07:46:52;;;;;;;17.83;8.30;;;7.10;99.90;;;;;;5052573;28;20087;-43
2022/02/15 07:49:18;;;;;;;18.40;10.43;;;7.10;99.90;;;;;;5040304;28;20017;-45
2022/02/15 07:51:44;;;;;;;14.90;9.02;;;7.10;99.90;;;;;;5049784;28;20037;-48
2022/02/15 07:54:10;;;;;;;12.80;9.13;;;7.10;99.90;;;;;;5051075;28;20446;-48
2022/02/15 07:56:36;;;;;;;11.50;8.68;;;7.20;99.90;;;;;;5056915;28;20071;-48
2022/02/15 07:59:01;;;;;;;11.68;9.02;;;7.20;99.90;;;;;;5067017;28;20029;-42
2022/02/15 08:01:27;;;;;;;12.20;10.05;;;7.20;99.90;;;;;;5066600;28;20021;-50
2022/02/15 08:03:53;;;;;;;13.48;8.75;;;7.10;99.90;;;;;;5062422;28;20033;-51
2022/02/15 08:06:18;;;;;;;11.05;8.50;;;7.10;99.90;;;;;;5060107;28;20403;-48
2022/02/15 08:08:44;;;;;;;11.25;8.88;;;7.20;99.90;;;;;;5055772;28;20032;-44
2022/02/15 08:11:10;;;;;;;14.13;8.85;;;7.20;99.90;;;;;;5047076;28;20032;-41
2022/02/15 08:13:37;;;;;;;10.35;7.95;;;7.20;99.90;;;;;;5031791;28;20505;-43
2022/02/15 08:16:03;;;;;;;11.65;8.45;;;7.20;99.90;;;;;;5044757;28;20112;-43
2022/02/15 08:18:29;;;;;;;9.40;6.75;;;7.30;99.90;;;;;;5050823;28;20024;-45
2022/02/15 08:20:55;;;;;;;10.25;7.15;;;7.30;99.90;;;;;;5051552;22;20041;-52
2022/02/15 08:23:22;;;;;;;12.98;7.78;;;7.30;99.90;;;;;;5030597;28;20481;-50
2022/02/15 08:25:50;;;;;;;11.98;7.97;;;7.40;99.90;;;;;;5031440;28;20040;-52
2022/02/15 08:28:17;;;;;;;11.55;8.95;;;7.40;99.90;;;;;;5031396;28;20072;-49
2022/02/15 08:30:42;;;;;;;12.25;8.23;;;7.40;99.90;;;;;;5018050;28;20079;-51
2022/02/15 08:33:08;;;;;;;8.30;7.03;;;7.40;99.90;;;;;;5030373;28;20271;-51
2022/02/15 08:35:34;;;;;;;16.15;8.05;;;7.50;99.90;;;;;;5031391;28;20712;-48
2022/02/15 08:37:59;;;;;;;11.60;8.30;;;7.50;99.90;;;;;;5030325;28;20101;-47
2022/02/15 08:40:25;;;;;;;11.25;7.60;;;7.50;99.90;;;;;;5030320;28;20026;-49
2022/02/15 08:42:50;;;;;;;8.55;7.63;;;7.60;99.90;;;;;;5029966;28;20022;-50
2022/02/15 08:45:16;;;;;;;9.68;6.97;;;7.60;99.90;;;;;;5031532;28;20449;-49
2022/02/15 08:47:41;;;;;;;9.65;7.10;;;7.60;99.90;;;;;;5031934;28;20021;-47
2022/02/15 08:50:08;;;;;;;9.93;7.78;;;7.60;99.90;;;;;;5031425;28;20649;-47
2022/02/15 08:52:36;;;;;;;13.57;9.32;;;7.60;99.90;;;;;;5031248;28;20477;-49
2022/02/15 08:55:07;;;;;;;13.50;9.02;;;7.70;99.90;;;;;;5031141;28;20036;-48
2022/02/15 08:57:33;;;;;;;17.40;9.52;;;7.80;99.90;;;;;;5031419;28;20021;-51
2022/02/15 08:59:58;;;;;;;12.57;9.48;;;7.70;99.90;;;;;;5031701;28;20388;-48
2022/02/15 09:02:24;;;;;;;16.08;9.73;;;7.70;99.90;;;;;;5031610;28;20104;-48
2022/02/15 09:04:51;;;;;;;13.32;9.10;;;7.80;99.90;;;;;;5031181;28;20515;-48
2022/02/15 09:07:17;;;;;;;11.52;8.25;;;7.80;99.90;;;;;;5031183;28;20029;-50
2022/02/15 09:09:43;;;;;;;12.23;8.95;;;7.80;99.90;;;;;;5031377;28;20045;-47
2022/02/15 09:12:09;;;;;;;12.73;9.20;;;7.90;99.90;;;;;;5031171;28;20026;-51
2022/02/15 09:14:35;;;;;;;13.30;8.75;;;8.00;99.90;;;;;;5031138;28;20076;-48
2022/02/15 09:17:00;;;;;;;14.20;9.27;;;8.10;99.90;;;;;;5030074;28;20025;-52
2022/02/15 09:19:27;;;;;;;10.80;8.68;;;8.10;99.90;;;;;;5031282;28;20041;-46
2022/02/15 09:21:52;;;;;;;11.32;7.22;;;8.10;99.90;;;;;;5031275;28;20056;-48
2022/02/15 09:24:18;;;;;;;8.88;6.40;;;8.20;99.90;;;;;;5030978;28;20063;-48
2022/02/15 09:26:44;;;;;;;7.95;5.70;;;8.30;99.90;;;;;;5032684;28;20028;-47
2022/02/15 09:29:11;;;;;;;9.27;6.40;;;8.40;99.90;;;;;;5034131;28;20022;-48
2022/02/15 09:31:38;;;;;;;8.48;6.07;;;8.60;99.90;;;;;;5035247;28;20025;-49
2022/02/15 09:34:04;;;;;;;9.57;6.38;;;8.80;99.90;;;;;;5034528;28;20017;-51
2022/02/15 09:36:29;;;;;;;7.35;5.35;;;8.80;99.90;;;;;;5034742;28;20030;-50
2022/02/15 09:38:55;;;;;;;7.25;5.60;;;8.90;99.90;;;;;;5034901;28;20048;-51
2022/02/15 09:41:21;;;;;;;9.70;5.90;;;9.10;99.90;;;;;;5033434;28;20025;-47
2022/02/15 09:43:46;;;;;;;5.75;4.95;;;9.30;99.90;;;;;;5034510;28;20473;-50
2022/02/15 09:46:14;;;;;;;5.18;3.80;;;9.40;99.90;;;;;;5034765;28;20548;-48
2022/02/15 09:48:42;;;;;;;3.00;2.70;;;9.50;99.90;;;;;;5033723;28;20017;-50
2022/02/15 09:51:09;;;;;;;2.28;2.15;;;9.60;99.90;;;;;;5034084;28;20022;-48
2022/02/15 09:53:36;;;;;;;2.88;2.60;;;9.50;99.90;;;;;;5032324;28;20030;-54
2022/02/15 09:56:03;;;;;;;5.20;2.63;;;9.40;99.90;;;;;;5033613;28;20022;-51
2022/02/15 09:58:28;;;;;;;2.60;2.40;;;9.30;99.90;;;;;;5032222;28;20505;-50
2022/02/15 10:00:55;;;;;;;4.15;2.55;;;9.20;99.90;;;;;;5034285;28;20053;-50
2022/02/15 10:03:21;;;;;;;5.10;3.83;;;9.20;99.90;;;;;;5032664;28;20503;-50
2022/02/15 10:05:48;;;;;;;3.53;2.38;;;9.20;99.90;;;;;;5032972;28;20033;-52
2022/02/15 10:08:13;;;;;;;2.38;2.20;;;9.30;99.90;;;;;;5034201;28;20471;-50
2022/02/15 10:10:39;;;;;;;4.93;2.42;;;9.90;99.90;;;;;;5034113;28;20022;-53
2022/02/15 10:13:08;;;;;;;2.38;2.05;;;10.50;99.90;;;;;;5033722;28;20061;-56
2022/02/15 10:15:36;;;;;;;3.05;2.75;;;10.40;99.90;;;;;;5034028;28;20075;-55
2022/02/15 10:18:27;;;;;;;2.83;1.95;;;10.40;99.90;;;;;;5034010;28;20021;-50
2022/02/15 10:20:57;;;;;;;1.70;1.60;;;10.30;99.90;;;;;;5033899;28;20044;-50
2022/02/15 10:23:25;;;;;;;2.55;1.90;;;10.30;99.90;;;;;;5032850;28;20108;-49
2022/02/15 10:25:52;;;;;;;3.90;2.35;;;10.20;99.90;;;;;;5033001;28;20104;-51
2022/02/15 10:28:30;;;;;;;6.15;2.53;;;10.00;99.90;;;;;;5032315;28;20033;-50
2022/02/15 10:30:58;;;;;;;2.22;2.10;;;10.00;99.90;;;;;;5033814;28;20033;-53
2022/02/15 10:33:32;;;;;;;2.92;2.72;;;9.90;99.90;;;;;;5033675;28;20046;-53
2022/02/15 10:36:03;;;;;;;2.47;2.28;;;9.90;99.90;;;;;;5030827;28;20052;-50
2022/02/15 10:38:39;;;;;;;3.25;1.92;;;9.80;99.90;;;;;;5032388;28;20049;-51
2022/02/15 10:41:12;;;;;;;3.05;2.15;;;9.70;99.90;;;;;;5033488;28;20017;-53
2022/02/15 10:43:43;;;;;;;4.88;2.20;;;9.70;99.90;;;;;;5031669;28;20079;-50
2022/02/15 10:46:15;;;;;;;5.45;2.63;;;9.70;99.90;;;;;;5024247;28;20030;-48
2022/02/15 10:48:41;;;;;;;3.10;2.35;;;9.70;99.90;;;;;;5033599;28;20127;-50
2022/02/15 10:51:07;;;;;;;2.30;2.10;;;9.80;99.90;;;;;;5016391;28;20030;-54
2022/02/15 10:53:33;;;;;;;2.53;2.10;;;10.40;99.90;;;;;;5022082;28;20029;-51
2022/02/15 10:55:59;;;;;;;3.60;1.65;;;10.60;99.90;;;;;;5033612;28;20044;-48
2022/02/15 10:58:25;;;;;;;4.28;3.35;;;10.60;99.90;;;;;;5030919;28;20385;-46
2022/02/15 11:00:51;;;;;;;3.40;2.30;;;10.40;99.90;;;;;;5013765;28;20406;-49
2022/02/15 11:03:21;;;;;;;1.90;1.77;;;10.30;99.90;;;;;;5013033;28;20029;-47
2022/02/15 11:05:48;;;;;;;2.20;2.00;;;10.20;99.90;;;;;;5013442;28;20026;-47
2022/02/15 11:08:14;;;;;;;2.65;1.95;;;10.10;99.90;;;;;;5013568;28;20530;-47
2022/02/15 11:10:46;;;;;;;2.60;2.40;;;10.00;99.90;;;;;;5015745;28;20108;-49
2022/02/15 11:13:12;;;;;;;3.17;2.33;;;10.00;99.90;;;;;;5012932;28;20041;-48
2022/02/15 11:15:41;;;;;;;2.90;2.33;;;9.80;99.90;;;;;;5010130;28;20754;-48
2022/02/15 11:18:10;;;;;;;2.78;2.55;;;9.90;99.90;;;;;;5011256;28;20605;-48
2022/02/15 11:20:55;;;;;;;5.45;2.60;;;9.70;99.90;;;;;;5010661;28;20104;-47
2022/02/15 11:23:22;;;;;;;4.53;2.35;;;9.60;99.90;;;;;;5012790;28;20021;-49
2022/02/15 11:25:49;;;;;;;2.30;2.20;;;9.30;99.90;;;;;;5013171;28;20022;-47
2022/02/15 11:28:16;;;;;;;1.55;1.45;;;9.10;99.90;;;;;;5025677;28;20037;-49
2022/02/15 11:30:54;;;;;;;1.45;1.35;;;8.80;99.90;;;;;;5030304;28;20104;-45
2022/02/15 11:33:22;;;;;;;1.77;1.67;;;8.50;99.90;;;;;;5031751;28;20031;-48
2022/02/15 11:35:49;;;;;;;2.15;2.05;;;8.40;99.90;;;;;;5026290;28;20481;-47
2022/02/15 11:38:15;;;;;;;2.83;1.70;;;8.40;99.90;;;;;;5030115;28;20494;-48
2022/02/15 11:40:40;;;;;;;1.65;1.60;;;8.40;99.90;;;;;;5032176;28;20049;-45
2022/02/15 11:43:06;;;;;;;2.47;2.22;;;8.40;99.90;;;;;;5032065;28;20021;-50
2022/02/15 11:45:32;;;;;;;2.00;1.50;;;8.60;99.90;;;;;;5032473;28;20034;-50
2022/02/15 11:48:10;;;;;;;1.52;1.40;;;8.80;99.90;;;;;;5031880;28;20029;-45
2022/02/15 11:50:53;;;;;;;1.40;1.30;;;8.90;99.90;;;;;;5032473;28;20021;-44
2022/02/15 11:53:20;;;;;;;1.10;1.10;;;9.00;99.90;;;;;;5032260;28;20033;-45
2022/02/15 11:55:48;;;;;;;1.48;1.30;;;8.90;99.90;;;;;;5030825;28;20505;-49
2022/02/15 11:58:14;;;;;;;1.60;1.48;;;9.10;99.90;;;;;;5031894;28;20063;-45
2022/02/15 12:00:41;;;;;;;2.28;1.42;;;9.20;99.90;;;;;;5018117;28;20013;-46
2022/02/15 12:03:07;;;;;;;1.70;1.23;;;9.10;99.90;;;;;;5031714;28;20044;-47
2022/02/15 12:05:40;;;;;;;4.60;1.73;;;9.20;99.90;;;;;;5032333;28;20026;-44
2022/02/15 12:08:06;;;;;;;1.92;1.30;;;9.30;99.90;;;;;;5012365;28;20030;-44
2022/02/15 12:10:39;;;;;;;1.70;1.55;;;9.30;99.90;;;;;;5012038;28;20037;-44
2022/02/15 12:13:16;;;;;;;2.08;1.95;;;9.50;99.90;;;;;;5018339;28;20105;-46
2022/02/15 12:15:49;;;;;;;1.42;1.33;;;9.50;99.90;;;;;;5023740;28;20112;-47
2022/02/15 12:18:25;;;;;;;1.48;1.48;;;9.60;99.90;;;;;;5030632;28;20022;-47
2022/02/15 12:20:56;;;;;;;1.83;1.73;;;9.60;99.90;;;;;;5028997;28;20728;-45
2022/02/15 12:23:23;;;;;;;1.90;1.60;;;9.60;99.90;;;;;;5031346;28;20389;-46
2022/02/15 12:25:49;;;;;;;2.45;1.70;;;9.70;99.90;;;;;;5029135;28;20443;-47
2022/02/15 12:28:24;;;;;;;1.70;1.40;;;9.80;99.90;;;;;;5029335;28;20105;-50
2022/02/15 12:30:50;;;;;;;;;;;9.80;99.90;;;;;;5030459;28;20500;-51
2022/02/15 12:33:18;;;;;;;2.67;1.75;;;9.70;99.90;;;;;;5030989;28;19916;-47
2022/02/15 12:35:44;;;;;;;7.13;1.60;;;9.60;99.90;;;;;;5026428;28;20025;-51
2022/02/15 12:38:10;;;;;;;1.98;1.35;;;9.70;99.90;;;;;;5021636;28;20026;-49
2022/02/15 12:40:35;;;;;;;1.90;1.50;;;9.70;99.90;;;;;;5017596;28;20033;-48
2022/02/15 12:43:01;;;;;;;1.35;1.25;;;9.80;99.90;;;;;;5023995;28;20028;-50
2022/02/15 12:45:27;;;;;;;2.95;1.25;;;9.80;99.90;;;;;;5013060;28;20169;-47
2022/02/15 12:47:53;;;;;;;1.38;1.10;;;9.80;99.90;;;;;;5029084;28;20457;-48
2022/02/15 12:50:20;;;;;;;2.05;1.13;;;9.70;99.90;;;;;;5017924;28;20029;-48